createdAt,value
2022-12-11T00:00:59.411Z,85.32
2022-12-11T00:03:27.635Z,86.60
2022-12-11T00:05:55.594Z,86.53
2022-12-11T00:08:23.464Z,86.14
2022-12-11T00:10:51.287Z,86.92
2022-12-11T00:13:19.274Z,87.00
2022-12-11T00:15:47.269Z,87.80
2022-12-11T00:18:15.288Z,87.25
2022-12-11T00:20:43.301Z,86.73
2022-12-11T00:23:11.306Z,86.65
2022-12-11T00:25:47.445Z,86.27
2022-12-11T00:28:20.084Z,86.25
2022-12-11T00:30:48.322Z,85.60
2022-12-11T00:33:16.622Z,85.67
2022-12-11T00:35:47.058Z,85.51
2022-12-11T00:38:20.843Z,85.89
2022-12-11T00:40:49.434Z,85.72
2022-12-11T00:43:17.670Z,85.54
2022-12-11T00:45:47.554Z,84.90
2022-12-11T00:48:15.512Z,85.73
2022-12-11T00:50:43.330Z,85.59
2022-12-11T00:53:11.251Z,86.51
2022-12-11T00:55:40.692Z,85.89
2022-12-11T00:58:09.851Z,85.71
2022-12-11T01:00:38.504Z,85.81
2022-12-11T01:03:06.920Z,85.62
2022-12-11T01:05:35.592Z,85.67
2022-12-11T01:08:04.240Z,85.67
2022-12-11T01:10:32.781Z,85.65
2022-12-11T01:13:06.568Z,85.41
2022-12-11T01:15:41.589Z,85.47
2022-12-11T01:18:12.022Z,85.70
2022-12-11T01:20:42.748Z,85.51
2022-12-11T01:23:13.407Z,85.49
2022-12-11T01:25:42.496Z,85.02
2022-12-11T01:28:10.617Z,85.25
2022-12-11T01:30:38.436Z,85.23
2022-12-11T01:33:06.679Z,85.31
2022-12-11T01:35:35.320Z,84.95
2022-12-11T01:38:03.380Z,85.39
2022-12-11T01:40:31.295Z,85.79
2022-12-11T01:42:59.309Z,85.27
2022-12-11T01:45:44.924Z,85.25
2022-12-11T01:48:16.249Z,85.62
2022-12-11T01:50:56.648Z,87.60
2022-12-11T01:53:32.596Z,87.86
2022-12-11T01:56:01.398Z,88.31
2022-12-11T01:58:34.307Z,88.09
2022-12-11T02:01:03.326Z,88.08
2022-12-11T02:03:31.338Z,90.18
2022-12-11T02:06:02.750Z,92.88
2022-12-11T02:08:30.740Z,94.68
2022-12-11T02:11:24.203Z,94.66
2022-12-11T02:13:57.526Z,95.50
2022-12-11T02:16:47.124Z,96.55
2022-12-11T02:19:59.423Z,97.86
2022-12-11T02:22:55.737Z,97.65
2022-12-11T02:25:34.503Z,96.82
2022-12-11T02:28:26.225Z,96.96
2022-12-11T02:31:35.744Z,96.34
2022-12-11T02:34:12.397Z,93.54
2022-12-11T02:36:45.381Z,91.87
2022-12-11T02:39:16.048Z,88.75
2022-12-11T02:41:49.178Z,86.44
2022-12-11T02:44:23.588Z,86.10
2022-12-11T02:46:53.282Z,83.37
2022-12-11T02:49:23.053Z,83.47
2022-12-11T02:51:52.886Z,82.68
2022-12-11T02:54:26.020Z,82.40
2022-12-11T02:57:05.034Z,81.99
2022-12-11T03:00:53.742Z,82.28
2022-12-11T03:03:22.363Z,82.75
2022-12-11T03:05:50.238Z,82.39
2022-12-11T03:08:18.882Z,81.89
2022-12-11T03:10:47.131Z,82.19
2022-12-11T03:13:20.220Z,82.06
2022-12-11T03:16:04.158Z,82.19
2022-12-11T03:18:44.603Z,81.81
2022-12-11T03:21:24.641Z,81.32
2022-12-11T03:24:17.122Z,80.90
2022-12-11T03:26:56.842Z,81.86
2022-12-11T03:29:32.221Z,82.22
2022-12-11T03:32:10.192Z,82.22
2022-12-11T03:35:06.962Z,82.39
2022-12-11T03:37:39.059Z,82.59
2022-12-11T03:40:32.322Z,81.96
2022-12-11T03:43:00.842Z,81.80
2022-12-11T03:45:30.755Z,81.60
2022-12-11T03:48:01.201Z,81.33
2022-12-11T03:50:32.418Z,80.90
2022-12-11T03:53:02.032Z,80.87
2022-12-11T03:55:32.619Z,80.55
2022-12-11T03:58:00.929Z,79.22
2022-12-11T04:00:29.757Z,78.49
2022-12-11T04:03:16.661Z,78.45
2022-12-11T04:05:50.788Z,77.33
2022-12-11T04:08:21.125Z,77.10
2022-12-11T04:11:10.390Z,77.40
2022-12-11T04:13:39.653Z,77.66
2022-12-11T04:16:07.913Z,77.28
2022-12-11T04:18:54.775Z,76.92
2022-12-11T04:21:41.072Z,76.67
2022-12-11T04:24:18.132Z,76.87
2022-12-11T04:26:47.506Z,77.00
2022-12-11T04:29:15.429Z,76.30
2022-12-11T04:31:43.417Z,76.72
2022-12-11T04:34:11.649Z,76.42
2022-12-11T04:36:39.786Z,76.09
2022-12-11T04:39:08.014Z,76.13
2022-12-11T04:41:37.362Z,76.07
2022-12-11T04:44:05.987Z,76.09
2022-12-11T04:46:34.570Z,76.26
2022-12-11T04:49:02.660Z,75.98
2022-12-11T04:51:30.522Z,76.39
2022-12-11T04:53:59.624Z,75.85
2022-12-11T04:56:27.564Z,76.16
2022-12-11T04:58:55.415Z,76.97
2022-12-11T05:01:23.743Z,77.17
2022-12-11T05:03:51.991Z,77.47
2022-12-11T05:06:19.909Z,77.42
2022-12-11T05:08:47.859Z,77.79
2022-12-11T05:11:16.593Z,78.30
2022-12-11T05:13:45.092Z,79.43
2022-12-11T05:16:15.838Z,78.82
2022-12-11T05:18:44.001Z,78.60
2022-12-11T05:21:13.335Z,79.74
2022-12-11T05:23:42.873Z,79.30
2022-12-11T05:26:17.264Z,79.01
2022-12-11T05:28:46.373Z,79.37
2022-12-11T05:31:17.549Z,79.13
2022-12-11T05:33:46.712Z,80.06
2022-12-11T05:36:19.559Z,81.38
2022-12-11T05:38:47.853Z,81.31
2022-12-11T05:41:18.085Z,81.40
2022-12-11T05:43:46.356Z,81.33
2022-12-11T05:46:22.570Z,81.18
2022-12-11T05:48:54.442Z,81.33
2022-12-11T05:51:22.926Z,81.29
2022-12-11T05:53:52.507Z,81.82
2022-12-11T05:56:25.263Z,81.04
2022-12-11T05:58:54.174Z,81.34
2022-12-11T06:01:28.266Z,81.35
2022-12-11T06:03:57.780Z,82.25
2022-12-11T06:06:27.452Z,81.39
2022-12-11T06:08:57.207Z,81.77
2022-12-11T06:11:27.243Z,81.34
2022-12-11T06:13:55.969Z,81.57
2022-12-11T06:16:24.864Z,81.35
2022-12-11T06:18:57.001Z,81.18
2022-12-11T06:21:33.666Z,81.17
2022-12-11T06:24:05.981Z,80.54
2022-12-11T06:26:34.078Z,81.56
2022-12-11T06:29:01.897Z,81.05
2022-12-11T06:31:29.924Z,81.05
2022-12-11T06:33:58.126Z,80.84
2022-12-11T06:36:26.063Z,80.47
2022-12-11T06:38:55.726Z,79.99
2022-12-11T06:41:23.840Z,79.56
2022-12-11T06:43:51.847Z,79.46
2022-12-11T06:46:20.691Z,79.84
2022-12-11T06:48:51.699Z,80.01
2022-12-11T06:51:22.624Z,80.00
2022-12-11T06:53:55.288Z,79.67
2022-12-11T06:56:24.738Z,79.87
2022-12-11T06:58:53.831Z,79.73
2022-12-11T07:01:27.248Z,80.50
2022-12-11T07:04:00.622Z,80.53
2022-12-11T07:06:29.533Z,79.93
2022-12-11T07:08:57.316Z,79.63
2022-12-11T07:11:25.388Z,80.01
2022-12-11T07:13:53.351Z,79.40
2022-12-11T07:16:21.782Z,78.82
2022-12-11T07:18:51.583Z,78.69
2022-12-11T07:21:21.027Z,78.32
2022-12-11T07:23:50.193Z,78.04
2022-12-11T07:26:21.248Z,77.58
2022-12-11T07:28:49.390Z,77.08
2022-12-11T07:31:20.450Z,77.22
2022-12-11T07:33:52.769Z,76.95
2022-12-11T07:36:20.887Z,76.31
2022-12-11T07:38:49.079Z,76.66
2022-12-11T07:41:17.900Z,75.97
2022-12-11T07:43:54.592Z,75.24
2022-12-11T07:46:25.431Z,74.81
2022-12-11T07:48:54.142Z,74.56
2022-12-11T07:51:28.202Z,74.86
2022-12-11T07:53:59.254Z,72.84
2022-12-11T07:56:28.383Z,71.70
2022-12-11T07:58:56.316Z,72.61
2022-12-11T08:01:26.869Z,71.42
2022-12-11T08:03:55.843Z,72.42
2022-12-11T08:06:28.000Z,72.03
2022-12-11T08:08:57.979Z,71.69
2022-12-11T08:11:26.897Z,73.33
2022-12-11T08:13:55.259Z,72.55
2022-12-11T08:16:23.404Z,72.88
2022-12-11T08:18:52.049Z,68.91
2022-12-11T08:21:23.843Z,68.76
2022-12-11T08:23:53.674Z,67.12
2022-12-11T08:26:27.829Z,66.56
2022-12-11T08:28:56.696Z,64.40
2022-12-11T08:31:26.067Z,65.93
2022-12-11T08:33:56.192Z,65.56
2022-12-11T08:36:25.326Z,65.93
2022-12-11T08:38:56.383Z,64.06
2022-12-11T08:41:27.792Z,63.44
2022-12-11T08:43:59.020Z,63.99
2022-12-11T08:46:29.807Z,63.49
2022-12-11T08:48:59.271Z,61.80
2022-12-11T08:51:29.434Z,61.59
2022-12-11T08:54:00.137Z,63.02
2022-12-11T08:56:29.184Z,63.10
2022-12-11T08:59:01.259Z,63.40
2022-12-11T09:01:29.725Z,62.91
2022-12-11T09:03:57.877Z,62.39
2022-12-11T09:06:28.938Z,63.17
2022-12-11T09:09:00.054Z,63.37
2022-12-11T09:11:34.064Z,62.83
2022-12-11T09:14:07.675Z,63.34
2022-12-11T09:16:40.722Z,65.45
2022-12-11T09:19:18.038Z,62.96
2022-12-11T09:21:46.473Z,64.19
2022-12-11T09:24:15.837Z,62.70
2022-12-11T09:26:44.198Z,62.35
2022-12-11T09:29:12.674Z,63.75
2022-12-11T09:31:41.353Z,63.16
2022-12-11T09:34:12.942Z,62.32
2022-12-11T09:36:42.547Z,62.55
2022-12-11T09:39:13.092Z,63.62
2022-12-11T09:42:02.225Z,63.48
2022-12-11T09:44:42.608Z,62.33
2022-12-11T09:47:43.053Z,62.55
2022-12-11T09:50:19.781Z,62.31
2022-12-11T09:53:13.692Z,62.95
2022-12-11T09:55:54.163Z,62.81
2022-12-11T09:59:02.014Z,60.57
2022-12-11T10:01:48.053Z,62.30
2022-12-11T10:04:50.295Z,61.50
2022-12-11T10:07:47.597Z,60.67
2022-12-11T10:10:22.061Z,62.45
2022-12-11T10:13:14.306Z,61.24
2022-12-11T10:16:04.791Z,60.92
2022-12-11T10:18:34.248Z,60.87
2022-12-11T10:21:04.480Z,61.91
2022-12-11T10:23:40.864Z,61.10
2022-12-11T10:26:19.115Z,62.17
2022-12-11T10:28:47.319Z,61.40
2022-12-11T10:31:26.930Z,62.02
2022-12-11T10:34:04.103Z,62.15
2022-12-11T10:36:41.784Z,62.15
2022-12-11T10:39:18.909Z,62.30
2022-12-11T10:41:51.585Z,65.30
2022-12-11T10:44:22.009Z,67.15
2022-12-11T10:47:12.581Z,68.25
2022-12-11T10:49:53.706Z,68.63
2022-12-11T10:52:28.128Z,69.00
2022-12-11T10:55:25.288Z,68.89
2022-12-11T10:58:01.247Z,69.03
2022-12-11T11:00:34.606Z,68.87
2022-12-11T11:03:04.482Z,69.17
2022-12-11T11:05:36.200Z,68.79
2022-12-11T11:08:19.996Z,68.77
2022-12-11T11:11:00.740Z,68.31
2022-12-11T11:13:31.256Z,68.27
2022-12-11T11:16:10.340Z,69.98
2022-12-11T11:18:41.221Z,69.18
2022-12-11T11:21:21.479Z,69.06
2022-12-11T11:23:53.669Z,69.09
2022-12-11T11:26:38.227Z,68.06
2022-12-11T11:29:17.379Z,66.64
2022-12-11T11:31:46.025Z,65.24
2022-12-11T11:34:22.593Z,64.64
2022-12-11T11:37:01.314Z,64.58
2022-12-11T11:39:38.214Z,64.03
2022-12-11T11:42:20.689Z,63.98
2022-12-11T11:45:18.525Z,63.46
2022-12-11T11:48:11.083Z,63.65
2022-12-11T11:50:45.451Z,64.73
2022-12-11T11:53:38.384Z,63.69
2022-12-11T11:56:23.213Z,63.72
2022-12-11T11:58:51.811Z,64.38
2022-12-11T12:01:21.540Z,64.22
2022-12-11T12:03:50.944Z,63.07
2022-12-11T12:06:40.000Z,65.17
2022-12-11T12:09:23.125Z,64.82
2022-12-11T12:12:27.540Z,64.68
2022-12-11T12:15:11.292Z,64.67
2022-12-11T12:18:02.969Z,65.50
2022-12-11T12:20:44.500Z,64.94
2022-12-11T12:23:36.907Z,65.02
2022-12-11T12:26:21.628Z,63.92
2022-12-11T12:29:09.853Z,64.26
2022-12-11T12:31:44.479Z,65.72
2022-12-11T12:34:34.852Z,66.46
2022-12-11T12:37:30.638Z,65.83
2022-12-11T12:40:28.359Z,65.73
2022-12-11T12:43:12.220Z,67.91
2022-12-11T12:46:03.255Z,67.03
2022-12-11T12:48:31.466Z,65.75
2022-12-11T12:51:01.676Z,67.03
2022-12-11T12:53:34.767Z,67.34
2022-12-11T12:56:04.836Z,68.15
2022-12-11T12:58:35.712Z,69.67
2022-12-11T13:01:13.820Z,68.84
2022-12-11T13:04:16.776Z,70.15
2022-12-11T13:06:56.624Z,69.85
2022-12-11T13:09:27.261Z,70.38
2022-12-11T13:12:00.069Z,69.99
2022-12-11T13:14:32.176Z,69.53
2022-12-11T13:17:09.048Z,69.57
2022-12-11T13:19:42.353Z,70.30
2022-12-11T13:22:14.597Z,71.81
2022-12-11T13:25:22.282Z,72.82
2022-12-11T13:27:50.448Z,73.82
2022-12-11T13:30:26.912Z,73.15
2022-12-11T13:33:15.925Z,71.48
2022-12-11T13:35:44.173Z,72.02
2022-12-11T13:38:21.317Z,72.79
2022-12-11T13:40:56.029Z,73.52
2022-12-11T13:43:27.675Z,75.02
2022-12-11T13:46:09.834Z,76.37
2022-12-11T13:48:48.783Z,77.02
2022-12-11T13:51:19.197Z,78.70
2022-12-11T13:53:47.256Z,79.45
2022-12-11T13:56:22.933Z,79.39
2022-12-11T13:58:50.881Z,79.82
2022-12-11T14:01:29.511Z,79.21
2022-12-11T14:04:09.993Z,79.43
2022-12-11T14:06:40.066Z,77.80
2022-12-11T14:09:09.784Z,78.79
2022-12-11T14:11:42.599Z,78.59
2022-12-11T14:14:42.753Z,79.76
2022-12-11T14:17:16.160Z,80.10
2022-12-11T14:19:49.033Z,79.36
2022-12-11T14:22:23.144Z,80.19
2022-12-11T14:24:58.030Z,81.26
2022-12-11T14:27:28.194Z,81.86
2022-12-11T14:29:57.415Z,81.05
2022-12-11T14:32:42.363Z,80.87
2022-12-11T14:35:39.196Z,81.31
2022-12-11T14:38:36.046Z,81.97
2022-12-11T14:41:13.307Z,81.62
2022-12-11T14:43:52.162Z,82.03
2022-12-11T14:46:33.090Z,81.75
2022-12-11T14:49:06.897Z,81.24
2022-12-11T14:51:40.140Z,82.34
2022-12-11T14:54:32.947Z,81.84
2022-12-11T14:57:06.539Z,82.22
2022-12-11T14:59:41.903Z,81.73
2022-12-11T15:02:33.133Z,83.33
2022-12-11T15:05:04.463Z,82.08
2022-12-11T15:07:34.408Z,82.48
2022-12-11T15:10:04.289Z,82.49
2022-12-11T15:12:33.106Z,83.73
2022-12-11T15:15:07.254Z,83.33
2022-12-11T15:17:37.757Z,83.58
2022-12-11T15:20:21.017Z,84.22
2022-12-11T15:22:49.628Z,82.87
2022-12-11T15:25:28.234Z,82.98
2022-12-11T15:28:00.105Z,83.52
2022-12-11T15:30:32.126Z,83.57
2022-12-11T15:33:20.139Z,84.40
2022-12-11T15:36:06.361Z,84.12
2022-12-11T15:38:34.737Z,84.84
2022-12-11T15:41:03.938Z,84.34
2022-12-11T15:43:36.571Z,85.15
2022-12-11T15:46:06.998Z,83.81
2022-12-11T15:48:35.433Z,84.11
2022-12-11T15:51:04.231Z,84.53
2022-12-11T15:53:32.694Z,85.18
2022-12-11T15:56:01.767Z,84.77
2022-12-11T15:58:30.866Z,85.18
2022-12-11T16:00:59.531Z,84.66
2022-12-11T16:03:27.928Z,84.73
2022-12-11T16:05:56.353Z,85.10
2022-12-11T16:08:25.231Z,85.17
2022-12-11T16:10:55.322Z,85.01
2022-12-11T16:13:23.731Z,85.21
2022-12-11T16:15:54.754Z,84.96
2022-12-11T16:18:24.848Z,84.25
2022-12-11T16:20:53.263Z,84.39
2022-12-11T16:23:21.775Z,83.78
2022-12-11T16:25:50.838Z,83.98
2022-12-11T16:28:21.531Z,84.08
2022-12-11T16:30:50.088Z,82.87
2022-12-11T16:33:18.792Z,83.99
2022-12-11T16:35:47.770Z,84.35
2022-12-11T16:38:16.176Z,84.47
2022-12-11T16:40:45.988Z,84.90
2022-12-11T16:43:14.650Z,85.32
2022-12-11T16:45:43.752Z,85.49
2022-12-11T16:48:12.348Z,85.32
2022-12-11T16:50:40.980Z,85.48
2022-12-11T16:53:09.382Z,86.25
2022-12-11T16:55:40.134Z,86.83
2022-12-11T16:58:08.752Z,85.90
2022-12-11T17:00:37.513Z,85.58
2022-12-11T17:03:06.668Z,85.35
2022-12-11T17:05:35.006Z,84.40
2022-12-11T17:08:03.644Z,83.81
2022-12-11T17:10:32.023Z,83.70
2022-12-11T17:13:00.770Z,84.18
2022-12-11T17:15:29.223Z,83.72
2022-12-11T17:17:57.689Z,83.82
2022-12-11T17:20:26.030Z,83.41
2022-12-11T17:28:30.717Z,83.13
2022-12-11T17:36:24.630Z,82.80
2022-12-11T17:38:53.262Z,82.17
2022-12-11T17:41:24.913Z,81.64
2022-12-11T17:43:58.035Z,81.76
2022-12-11T17:46:27.078Z,81.75
2022-12-11T17:48:56.823Z,82.36
2022-12-11T17:51:25.334Z,82.26
2022-12-11T17:53:58.835Z,81.50
2022-12-11T17:56:27.900Z,80.67
2022-12-11T17:58:56.058Z,80.74
2022-12-11T18:01:24.950Z,80.44
2022-12-11T18:03:53.498Z,80.89
2022-12-11T18:06:23.500Z,79.92
2022-12-11T18:08:52.095Z,80.80
2022-12-11T18:11:23.824Z,80.17
2022-12-11T18:13:53.349Z,80.46
2022-12-11T18:16:26.932Z,80.37
2022-12-11T18:18:56.850Z,80.54
2022-12-11T18:21:29.660Z,81.30
2022-12-11T18:23:58.529Z,81.19
2022-12-11T18:26:27.350Z,80.85
2022-12-11T18:28:55.875Z,81.19
2022-12-11T18:31:25.034Z,80.09
2022-12-11T18:33:54.167Z,79.07
2022-12-11T18:36:22.739Z,78.99
2022-12-11T18:38:51.160Z,79.33
2022-12-11T18:41:20.385Z,79.65
2022-12-11T18:43:48.991Z,80.37
2022-12-11T18:46:19.520Z,80.99
2022-12-11T18:48:49.494Z,80.33
2022-12-11T18:51:22.952Z,80.15
2022-12-11T18:53:52.257Z,79.71
2022-12-11T18:56:20.693Z,80.92
2022-12-11T18:58:52.357Z,81.26
2022-12-11T19:01:24.671Z,81.18
2022-12-11T19:04:03.251Z,81.56
2022-12-11T19:06:35.832Z,80.22
2022-12-11T19:09:06.608Z,81.35
2022-12-11T19:11:36.732Z,80.98
2022-12-11T19:14:06.334Z,80.35
2022-12-11T19:16:43.113Z,81.55
2022-12-11T19:22:07.343Z,80.79
2022-12-11T19:27:18.218Z,81.24
2022-12-11T19:29:46.664Z,80.70
2022-12-11T19:32:15.227Z,79.63
2022-12-11T19:34:44.125Z,79.79
2022-12-11T19:37:12.437Z,79.47
2022-12-11T19:39:41.444Z,80.62
2022-12-11T19:42:09.806Z,80.87
2022-12-11T19:44:38.596Z,78.93
2022-12-11T19:47:07.048Z,79.43
2022-12-11T19:49:35.279Z,79.99
2022-12-11T19:52:05.014Z,79.95
2022-12-11T19:54:33.476Z,80.58
2022-12-11T19:57:01.646Z,79.64
2022-12-11T19:59:29.728Z,81.07
2022-12-11T20:01:57.685Z,80.46
2022-12-11T20:04:26.069Z,80.21
2022-12-11T20:06:54.279Z,79.69
2022-12-11T20:09:22.204Z,80.17
2022-12-11T20:11:50.798Z,79.19
2022-12-11T20:14:22.788Z,79.38
2022-12-11T20:17:10.985Z,79.73
2022-12-11T20:19:41.501Z,79.30
2022-12-11T20:22:09.964Z,79.60
2022-12-11T20:24:38.676Z,79.05
2022-12-11T20:27:06.700Z,78.34
2022-12-11T20:29:35.029Z,79.05
2022-12-11T20:32:03.250Z,79.67
2022-12-11T20:34:31.612Z,79.26
2022-12-11T20:37:00.623Z,79.35
2022-12-11T20:39:29.327Z,79.90
2022-12-11T20:41:57.396Z,79.36
2022-12-11T20:44:25.541Z,79.89
2022-12-11T20:46:53.578Z,79.01
2022-12-11T20:49:21.687Z,79.93
2022-12-11T20:51:49.828Z,78.47
2022-12-11T20:54:17.859Z,79.21
2022-12-11T20:56:45.919Z,78.00
2022-12-11T20:59:14.171Z,79.79
2022-12-11T21:01:42.233Z,79.13
2022-12-11T21:04:11.061Z,78.42
2022-12-11T21:06:40.825Z,78.91
2022-12-11T21:09:13.216Z,77.94
2022-12-11T21:11:41.516Z,78.15
2022-12-11T21:14:10.102Z,78.10
2022-12-11T21:16:38.179Z,78.76
2022-12-11T21:19:07.013Z,78.11
2022-12-11T21:21:37.103Z,77.72
2022-12-11T21:34:58.551Z,78.05
2022-12-11T21:37:26.880Z,78.14
2022-12-11T21:39:57.894Z,77.48
2022-12-11T21:42:26.295Z,76.92
2022-12-11T21:47:42.830Z,77.38
2022-12-11T21:50:12.908Z,78.39
2022-12-11T21:52:41.194Z,78.16
2022-12-11T21:55:11.139Z,79.20
2022-12-11T21:57:39.430Z,78.81
2022-12-11T22:00:09.819Z,79.19
2022-12-11T22:02:41.410Z,79.36
2022-12-11T22:05:10.080Z,79.60
2022-12-11T22:07:38.255Z,78.84
2022-12-11T22:10:06.983Z,78.29
2022-12-11T22:12:34.872Z,78.49
2022-12-11T22:15:02.955Z,78.55
2022-12-11T22:17:31.864Z,79.31
2022-12-11T22:19:59.891Z,79.56
2022-12-11T22:22:27.913Z,79.43
2022-12-11T22:24:55.825Z,79.07
2022-12-11T22:27:24.164Z,79.20
2022-12-11T22:29:54.996Z,79.22
2022-12-11T22:32:22.910Z,78.41
2022-12-11T22:34:50.807Z,79.70
2022-12-11T22:37:18.892Z,79.93
2022-12-11T22:39:46.889Z,80.22
2022-12-11T22:42:14.798Z,79.85
2022-12-11T22:44:43.092Z,80.88
2022-12-11T22:47:11.583Z,80.56
2022-12-11T22:49:39.575Z,80.74
2022-12-11T22:52:07.489Z,79.89
2022-12-11T22:54:39.172Z,80.34
2022-12-11T22:57:07.437Z,80.54
2022-12-11T22:59:36.309Z,81.56
2022-12-11T23:02:04.373Z,80.96
2022-12-11T23:04:32.438Z,81.24
2022-12-11T23:07:00.427Z,81.27
2022-12-11T23:09:28.267Z,80.56
2022-12-11T23:11:58.582Z,81.76
2022-12-11T23:14:26.735Z,81.39
2022-12-11T23:16:54.828Z,81.32
2022-12-11T23:19:25.587Z,81.54
2022-12-11T23:21:54.150Z,81.33
2022-12-11T23:24:22.839Z,81.95
2022-12-11T23:26:50.547Z,82.88
2022-12-11T23:29:18.355Z,84.58
2022-12-11T23:31:46.561Z,83.80
2022-12-11T23:34:14.427Z,84.20
2022-12-11T23:36:42.475Z,83.87
2022-12-11T23:39:10.403Z,83.58
2022-12-11T23:41:38.570Z,83.87
2022-12-11T23:44:06.394Z,83.24
2022-12-11T23:46:34.671Z,83.66
2022-12-11T23:49:02.872Z,83.63
2022-12-11T23:51:31.239Z,84.01
2022-12-11T23:53:59.145Z,84.64
2022-12-11T23:56:29.147Z,84.30
2022-12-11T23:58:57.716Z,83.73
